Bio Planet Sa (BIP) Latest Bloomsberg Price


Mffais Ranking #8 Overall / #1 Industry
Industry:

Number of Companies: 138 (Ranking #1257 Overall/#3 Industry)
Inflow: $ 483,901 (K) (Ranking #238 Overall/#1 Industry)
Outflow: $ -21,702 (K)
Mffais Flow: $ 462,198 (K) (Ranking #8 Overall/#1 Industry)


Receive a FREE weekly executive review of stocks moving into the top 10, taking the top industy spot or moving up within their industry. Sent directly to your Inbox every Saturday. Sign up today and get last week's review immediately sent to you.

We value and respect your privacy. Please read our Terms and Conditions which states our firm commitment to your privacy. Your email address will not be shared with a third party, nor will it be sold or used for purposes other than subscription for the weekly review.

Owner CPOR Shares Action Qty Chg Invested (K) Total Current Value (K)
Td Asset Management Inc 2016-09-30 8,894,408 Added More 2,874,976 $ 133,513 $ 413,056
Connor Clark Lunn Investment Management Ltd 2016-09-30 3,819,548 Added More 1,097,056 $ 50,947 $ 177,379
Sentry Investments Corp 2016-09-30 3,182,729 Added More 1,023,743 $ 47,542 $ 147,805
Geneva Advisors Llc 2016-09-30 1,400,531 Added More 578,190 $ 26,851 $ 65,040
Cibc World Markets Inc 2016-09-30 1,129,293 Added More 571,215 $ 26,527 $ 52,444
Fiera Capital Corp 2016-09-30 1,258,251 Added More 542,335 $ 25,186 $ 58,433
First Manhattan Co 2016-09-30 1,567,863 Added More 453,921 $ 21,080 $ 72,811
Scotia Capital Inc 2016-09-30 856,123 Added More 335,336 $ 15,573 $ 39,758
Burgundy Asset Management Ltd 2016-09-30 792,435 Added More 265,144 $ 12,313 $ 36,800
Nexus Investment Management Inc 2016-09-30 629,474 Added More 249,124 $ 11,569 $ 29,232
Bowen Hanes Co Inc 2016-09-30 557,924 Added More 186,524 $ 8,662 $ 25,909
Baskin Financial Services Inc 2016-09-30 491,926 Added More 161,482 $ 7,499 $ 22,845
Partners Group Holding Ag 2016-09-30 798,196 Added More 151,340 $ 7,028 $ 37,068
Raymond James Associates 2016-09-30 388,006 Added More 127,495 $ 5,920 $ 18,018
Oppenheimer Co Inc 2016-09-30 100,522 New Holding 100,522 $ 4,668 $ 4,668
Nuveen Asset Management Llc 2016-09-30 493,138 Added More 95,377 $ 4,429 $ 22,901
Alps Advisors Inc 2016-09-30 325,611 Added More 85,201 $ 3,956 $ 15,121
Chicago Partners Investment Group Llc 2016-09-30 234,003 Added More 83,149 $ 3,861 $ 10,867
Karpas Strategies Llc 2016-09-30 204,248 Added More 68,081 $ 3,161 $ 9,485
Ladenburg Thalmann Financial Services Inc 2016-09-30 155,782 Added More 62,306 $ 2,893 $ 7,234
Woodmont Investment Counsel Llc 2016-09-30 185,064 Added More 59,517 $ 2,763 $ 8,594
American Assets Capital Advisers 2016-09-30 177,733 Added More 59,244 $ 2,751 $ 8,253
Northern Trust Corp 2016-09-30 165,600 Added More 57,130 $ 2,653 $ 7,690
Callahan Advisors Llc 2016-09-30 160,183 Added More 56,081 $ 2,604 $ 7,438
Arrowpoint Asset Management Llc 2016-09-30 168,150 Added More 56,050 $ 2,602 $ 7,808
Davis-Rea Ltd 2016-09-30 373,627 Added More 55,464 $ 2,575 $ 17,351
Miller Howard Investments Inc Ny 2016-09-30 144,010 Added More 48,003 $ 2,229 $ 6,687
Deere Co 2016-09-30 42,661 New Holding 42,661 $ 1,981 $ 1,981
Raymond James Financial Services Advisors Inc 2016-09-30 103,999 Added More 42,463 $ 1,971 $ 4,829
Tealwood Asset Management Inc 2016-09-30 149,540 Added More 41,711 $ 1,937 $ 6,944
United Capital Financial Advisers Llc 2016-09-30 280,669 Added More 41,017 $ 1,904 $ 13,034
Greystone Investment Management Llc 2016-09-30 116,249 Added More 38,747 $ 1,799 $ 5,398
Horizon Kinetics Llc 2016-09-30 117,036 Added More 38,411 $ 1,783 $ 5,435
Hightower Advisors Llc 2016-09-30 123,825 Added More 37,535 $ 1,743 $ 5,750
Peak6 Investments L P 2016-09-30 35,300 New Holding 35,300 $ 1,639 $ 1,639
Advisors Capital Management Llc 2016-09-30 80,860 Added More 28,583 $ 1,327 $ 3,755
Pnc Financial Services Group Inc 2016-09-30 56,884 Added More 28,374 $ 1,317 $ 2,641
Springbok Capital Management Llc 2016-09-30 28,145 Added More 27,345 $ 1,269 $ 1,307
Sprott Inc 2016-09-30 559,305 Added More 26,435 $ 1,227 $ 25,974
Lucas Capital Management 2016-09-30 76,085 Added More 24,045 $ 1,116 $ 3,533
Mirae Asset Global Investments Co Ltd 2016-09-30 53,090 Added More 20,061 $ 931 $ 2,465
Mcqueen Ball Associates Inc 2016-09-30 57,374 Added More 19,124 $ 888 $ 2,664
Bank Of Nova Scotia Trust Co 2016-09-30 57,200 Added More 18,993 $ 882 $ 2,656
Cannell Peter B Co Inc 2016-09-30 170,423 Added More 18,043 $ 837 $ 7,914
Commonwealth Equity Services Inc 2016-09-30 53,235 Added More 17,915 $ 831 $ 2,472
Guardian Capital Advisors Lp 2016-09-30 61,339 Added More 17,870 $ 829 $ 2,848
Avalon Advisors Llc 2016-09-30 40,851 Added More 16,756 $ 778 $ 1,897
Everett Harris Co Ca 2016-09-30 51,442 Added More 16,432 $ 763 $ 2,388
Laurel Wealth Advisors Inc 2016-09-30 46,650 Added More 15,650 $ 726 $ 2,166
Agf Investments Inc 2016-09-30 545,068 Added More 14,690 $ 682 $ 25,312
Tuttle Tactical Management Llc 2016-09-30 14,668 New Holding 14,668 $ 681 $ 681
Jane Street Group Llc 2016-09-30 29,399 Added More 13,154 $ 610 $ 1,365
Stone Run Capital Llc 2016-09-30 39,000 Added More 13,000 $ 603 $ 1,811
Cantab Capital Partners Llp 2016-09-30 11,766 New Holding 11,766 $ 546 $ 546
Amp Capital Investors Ltd 2016-09-30 36,600 Added More 10,320 $ 479 $ 1,699
Keybank National Association Oh 2016-09-30 30,820 Added More 10,273 $ 477 $ 1,431
Creative Planning 2016-09-30 18,566 Added More 9,532 $ 442 $ 862
Portland Investment Counsel Inc 2016-09-30 37,372 Added More 9,497 $ 441 $ 1,735
Stratos Wealth Partners Ltd 2016-09-30 9,330 New Holding 9,330 $ 433 $ 433
Crestwood Advisors Llc 2016-09-30 8,250 New Holding 8,250 $ 383 $ 383
Cambridge Investment Research Advisors Inc 2016-09-30 24,655 Added More 8,115 $ 376 $ 1,144
Brown Advisory Securities Llc 2016-09-30 24,753 Added More 7,977 $ 370 $ 1,149
Americafirst Capital Management Llc 2016-09-30 7,945 New Holding 7,945 $ 368 $ 368
Seabridge Investment Advisors Llc 2016-09-30 20,571 Added More 6,996 $ 324 $ 955
Sigma Planning Corp 2016-09-30 21,922 Added More 6,841 $ 317 $ 1,018
Cetera Advisor Networks Llc 2016-09-30 6,440 New Holding 6,440 $ 299 $ 299
Interocean Capital Llc 2016-09-30 6,375 New Holding 6,375 $ 296 $ 296
Moneta Group Investment Advisors Llc 2016-09-30 18,937 Added More 6,312 $ 293 $ 879
Mirador Capital Partners Lp 2016-09-30 6,174 New Holding 6,174 $ 286 $ 286
Steinberg Global Asset Management 2016-09-30 6,120 New Holding 6,120 $ 284 $ 284
Advisor Group Inc 2016-09-30 11,165 Added More 6,087 $ 282 $ 518
M T Bank Corp 2016-09-30 18,592 Added More 6,042 $ 280 $ 863
Wade G W Inc 2016-09-30 10,828 Added More 6,003 $ 278 $ 502
Bridgewater Wealth Financial Management Llc 2016-09-30 5,826 New Holding 5,826 $ 270 $ 270
Cg Asset Management Llc 2016-09-30 10,800 Added More 4,600 $ 213 $ 501
New South Capital Management Inc 2016-09-30 13,791 Added More 4,596 $ 213 $ 640
First Republic Investment Management Inc 2016-09-30 9,290 Added More 4,564 $ 211 $ 431
Beck Mack Oliver Llc 2016-09-30 13,302 Added More 4,433 $ 205 $ 617
Bahl Gaynor Inc 2016-09-30 11,550 Added More 4,350 $ 202 $ 536
Dorchester Wealth Management Co 2016-09-30 12,412 Added More 4,136 $ 192 $ 576
Cutler Group Lp 2016-09-30 4,300 Added More 3,800 $ 176 $ 199
Optimum Investment Advisors 2016-09-30 8,131 Added More 3,517 $ 163 $ 377
New England Private Wealth Advisors Llc 2016-09-30 10,500 Added More 3,500 $ 162 $ 487
Cetera Advisors Llc 2016-09-30 9,539 Added More 3,479 $ 161 $ 442
K J Harrison Partners Inc 2016-09-30 49,589 Added More 3,329 $ 154 $ 2,302
Ifp Advisors Inc 2016-09-30 15,932 Added More 3,235 $ 150 $ 739
Roof Eidam Maycock Adv 2016-09-30 9,000 Added More 3,000 $ 139 $ 417
Tower Research Capital Llc Trc 2016-09-30 3,035 Added More 2,993 $ 138 $ 140
Fifth Third Bancorp 2016-09-30 6,970 Added More 2,643 $ 122 $ 323
Bradley Foster Sargent Inc Ct 2016-09-30 7,871 Added More 2,622 $ 121 $ 365
Cibc Asset Management Inc 2016-09-30 11,189 Added More 2,476 $ 114 $ 519
Next Financial Group Inc 2016-09-30 6,248 Added More 2,321 $ 107 $ 290
Bronfman E L Rothschild L P 2016-09-30 5,932 Added More 1,816 $ 84 $ 275
Community Bank N A 2016-09-30 1,540 Added More 1,513 $ 70 $ 71
Shamrock Asset Management Llc 2016-09-30 8,220 Added More 1,369 $ 63 $ 381
Bollard Group Llc 2016-09-30 3,562 Added More 1,214 $ 56 $ 165
Hudock Capital Group Llc 2016-09-30 3,227 Added More 1,141 $ 52 $ 149
Wealthsource Partners Llc 2016-09-30 17,573 Added More 1,058 $ 49 $ 816
Isthmus Partners Llc 2016-09-30 3,000 Added More 1,000 $ 46 $ 139
Johnson Financial Group Inc 2016-09-30 1,935 Added More 935 $ 43 $ 89
Investors Capital Advisory Services 2016-06-30 7,437 Added More 890 $ 40 $ 336
Finemark National Bank Trust 2016-09-30 7,320 Added More 828 $ 38 $ 339
Msi Financial Services Inc 2016-09-30 1,082 Added More 807 $ 37 $ 50
North Star Investment Management Corp 2016-09-30 2,286 Added More 781 $ 36 $ 106
Brown Brothers Harriman Co 2016-09-30 2,280 Added More 760 $ 35 $ 105
Advisory Services Network Llc 2016-09-30 1,884 Added More 749 $ 34 $ 87
Whittier Trust Co 2016-09-30 1,541 Added More 695 $ 32 $ 71
Stifel Financial Corp 2016-09-30 6,004 Added More 526 $ 24 $ 278
Whittier Trust Co Of Nevada Inc 2016-09-30 1,500 Added More 500 $ 23 $ 69
Cls Investments Llc 2016-09-30 495 New Holding 495 $ 22 $ 22
Us Bancorp De 2016-09-30 1,462 Added More 487 $ 22 $ 67
Archford Capital Strategies Llc 2016-09-30 1,257 Added More 419 $ 19 $ 58
Alphamark Advisors Llc 2016-09-30 1,200 Added More 400 $ 18 $ 55
Ls Investment Advisors Llc 2016-09-30 1,200 Added More 400 $ 18 $ 55
Vantage Investment Advisors Llc 2016-09-30 1,110 Added More 370 $ 17 $ 51
Gradient Investments Llc 2016-09-30 600 Added More 299 $ 13 $ 27
Northwestern Mutual Wealth Management Co 2016-09-30 375 Added More 275 $ 12 $ 17
Financial Architects Inc 2016-09-30 750 Added More 250 $ 11 $ 34
Reilly Financial Advisors Llc 2016-09-30 751 Added More 250 $ 11 $ 34
Duncker Streett Co Inc 2016-09-30 720 Added More 240 $ 11 $ 33
Thrivent Financial For Lutherans 2016-09-30 630 Added More 210 $ 9 $ 29
Peoples United Financial Inc 2016-09-30 150 New Holding 150 $ 6 $ 6
Thompson Siegel Walmsley Llc 2016-09-30 449 Added More 149 $ 6 $ 20
Synovus Financial Corp 2016-09-30 789 Added More 94 $ 4 $ 36
Salem Investment Counselors Inc 2016-09-30 45 New Holding 45 $ 2 $ 2
Howe Rusling Inc 2016-09-30 75 Added More 25 $ 1 $ 3
Massmutual Trust Co Fsb Adv 2016-06-30 100 No Change 0 $ 0 $ 4
Quantbot Technologies Lp 2016-09-30 0 Sold All -627 $ -29 $ 0
Sei Investments Co 2016-09-30 6,015 Sold Some -1,915 $ -88 $ 279
Suncoast Equity Management 2016-09-30 7,453 Sold Some -4,787 $ -222 $ 346
Kcg Holdings Inc 2016-09-30 0 Sold All -6,439 $ -299 $ 0
Gsa Capital Partners Llp 2016-09-30 15,050 Sold Some -11,150 $ -517 $ 698
Quadrature Capital Ltd 2016-09-30 0 Sold All -17,900 $ -831 $ 0
Guggenheim Capital Llc 2016-09-30 0 Sold All -27,275 $ -1,266 $ 0
Clinton Group Inc 2016-09-30 0 Sold All -29,420 $ -1,366 $ 0
Dialectic Capital Management Lp 2016-09-30 0 Sold All -100,000 $ -4,644 $ 0
Emerald Acquisition Ltd 2016-09-30 1,989,637 Sold Some -132,503 $ -6,153 $ 92,398
Mackenzie Financial Corp 2016-09-30 0 Sold All -135,300 $ -6,283 $ 0